CDT,Max TemperatureF,Mean TemperatureF,Min TemperatureF,Max Dew PointF,MeanDew PointF,Min DewpointF,Max Humidity, Mean Humidity, Min Humidity, Max Sea Level PressureIn, Mean Sea Level PressureIn, Min Sea Level PressureIn, Max VisibilityMiles, Mean VisibilityMiles, Min VisibilityMiles, Max Wind SpeedMPH, Mean Wind SpeedMPH, Max Gust SpeedMPH,PrecipitationIn, CloudCover, Events, WindDirDegrees
2012-9-1,85,71,56,54,49,46,75,52,28,30.18,30.11,30.03,10,10,10,15,6,21,0.00,0,,100
2012-9-2,87,72,56,67,59,50,80,64,47,30.03,29.92,29.83,10,10,10,22,9,26,0.00,1,,149
2012-9-3,91,75,59,66,55,40,97,57,17,29.94,29.90,29.85,10,8,0,8,3,12,0.00,0,Fog,35
2012-9-4,89,72,55,61,51,41,80,50,20,29.89,29.83,29.78,10,10,10,20,6,24,0.00,0,,263
2012-9-5,80,65,50,53,48,39,77,51,25,29.92,29.86,29.75,10,10,10,20,7,26,T,2,Rain,328
2012-9-6,83,64,45,56,47,42,93,59,24,29.99,29.94,29.88,10,10,6,22,4,25,0.04,3,Rain,230
2012-9-7,68,58,47,57,48,42,93,69,44,30.08,30.02,29.94,10,10,10,22,9,38,0.05,5,Rain,336
2012-9-8,75,59,42,47,44,41,96,64,31,30.09,29.99,29.86,10,10,10,25,10,33,0.00,3,,304
2012-9-9,75,62,48,50,46,41,93,62,31,30.23,30.16,30.10,10,10,10,10,5,20,0.00,0,,305
2012-9-10,83,65,47,48,46,44,86,56,26,30.09,29.93,29.78,10,10,10,29,14,36,0.00,0,,163
2012-9-11,96,79,61,53,51,48,67,44,20,29.88,29.75,29.65,10,10,10,25,11,35,0.00,0,,187
2012-9-12,68,60,52,49,45,39,77,56,35,30.25,30.14,29.93,10,10,10,16,6,24,T,4,,242
2012-9-13,75,57,39,46,35,21,100,57,14,30.36,30.31,30.27,10,7,0,21,5,26,0.00,0,Fog,307
2012-9-14,75,57,38,40,35,31,92,56,19,30.38,30.33,30.28,10,10,10,12,4,20,0.00,0,,63
2012-9-15,85,66,47,46,41,36,71,46,20,30.27,30.09,29.93,10,10,10,17,8,22,0.00,0,,143
2012-9-16,81,68,55,53,46,38,78,53,28,30.01,29.93,29.88,10,10,10,17,9,25,0.00,0,,313
2012-9-17,64,51,37,47,38,28,86,58,30,30.07,30.03,29.98,10,10,4,22,8,30,0.07,5,Rain,341
2012-9-18,62,49,35,39,33,26,92,60,27,30.30,30.03,29.88,10,10,7,14,5,18,0.00,2,,283
2012-9-19,73,61,48,45,38,31,71,50,28,29.87,29.75,29.66,10,10,10,33,14,41,T,3,,254
2012-9-20,66,58,49,42,34,27,71,48,24,29.95,29.91,29.86,10,10,10,25,11,30,T,3,,302
2012-9-21,64,51,38,46,38,27,89,58,27,29.97,29.88,29.82,10,10,8,24,8,33,0.07,5,Rain,299
2012-9-22,58,45,32,37,31,23,82,54,25,30.30,30.16,29.95,10,10,10,22,10,32,0.00,4,,328
2012-9-23,62,46,30,33,27,23,85,54,23,30.36,30.29,30.18,10,10,10,16,5,23,0.00,0,,303
2012-9-24,78,54,29,40,31,26,85,51,17,30.16,29.92,29.75,10,10,10,22,7,26,0.00,0,,241
2012-9-25,67,51,35,40,34,30,85,56,26,30.01,29.93,29.84,10,10,10,10,4,18,0.00,0,,3
2012-9-26,64,47,30,37,32,29,96,62,27,30.27,30.16,30.03,10,10,10,12,3,16,0.00,0,,11
2012-9-27,69,48,27,38,32,27,92,58,24,30.33,30.27,30.22,10,10,10,10,1,13,0.00,0,,173
2012-9-28,79,57,34,39,34,29,92,54,16,30.26,30.19,30.12,10,10,9,13,3,16,0.00,0,,196
2012-9-29,84,63,42,42,38,35,82,50,17,30.16,30.10,30.04,10,10,10,12,2,15,0.00,0,,25
2012-9-30,80,63,45,42,40,36,76,49,21,30.06,29.98,29.88,10,10,6,12,5,15,0.00,0,,118